createdAt,value
2019-06-15T00:02:21.002Z,18.20
2019-06-15T00:04:48.625Z,18.10
2019-06-15T00:07:16.211Z,18.10
2019-06-15T00:09:43.800Z,18.00
2019-06-15T00:12:11.421Z,17.90
2019-06-15T00:14:39.006Z,17.90
2019-06-15T00:17:07.493Z,17.80
2019-06-15T00:19:34.970Z,17.80
2019-06-15T00:22:02.578Z,17.80
2019-06-15T00:24:35.451Z,17.80
2019-06-15T00:26:57.759Z,17.80
2019-06-15T00:29:25.383Z,17.80
2019-06-15T00:31:53.334Z,17.80
2019-06-15T00:34:20.914Z,17.80
2019-06-15T00:36:48.501Z,17.70
2019-06-15T00:39:16.118Z,17.70
2019-06-15T00:41:43.710Z,17.60
2019-06-15T00:44:11.302Z,17.60
2019-06-15T00:46:38.921Z,17.60
2019-06-15T00:49:06.495Z,17.60
2019-06-15T00:51:34.840Z,17.50
2019-06-15T00:54:02.463Z,17.50
2019-06-15T00:56:30.054Z,17.50
2019-06-15T00:58:57.674Z,17.60
2019-06-15T01:01:26.025Z,17.60
2019-06-15T01:03:53.618Z,17.60
2019-06-15T01:06:21.554Z,17.60
2019-06-15T01:08:49.145Z,17.70
2019-06-15T01:11:16.753Z,17.70
2019-06-15T01:13:44.364Z,17.90
2019-06-15T01:16:12.719Z,17.80
2019-06-15T01:18:40.312Z,17.80
2019-06-15T01:21:07.922Z,17.80
2019-06-15T01:23:35.520Z,17.90
2019-06-15T01:26:03.681Z,17.90
2019-06-15T01:28:31.268Z,17.80
2019-06-15T01:30:59.622Z,17.90
2019-06-15T01:33:27.248Z,17.90
2019-06-15T01:35:54.829Z,17.90
2019-06-15T01:38:22.421Z,17.80
2019-06-15T01:40:50.042Z,17.80
2019-06-15T01:43:17.686Z,17.70
2019-06-15T01:45:45.223Z,17.70
2019-06-15T01:48:13.651Z,17.80
2019-06-15T01:50:41.234Z,17.70
2019-06-15T01:53:08.820Z,17.80
2019-06-15T01:55:37.197Z,17.70
2019-06-15T01:58:05.550Z,17.70
2019-06-15T02:00:33.437Z,17.70
2019-06-15T02:03:01.023Z,17.70
2019-06-15T02:05:28.617Z,17.70
2019-06-15T02:07:56.722Z,17.60
2019-06-15T02:10:24.313Z,17.60
2019-06-15T02:12:52.672Z,17.80
2019-06-15T02:15:20.297Z,17.80
2019-06-15T02:17:47.883Z,17.80
2019-06-15T02:20:15.516Z,17.70
2019-06-15T02:22:43.140Z,17.70
2019-06-15T02:25:10.702Z,17.70
2019-06-15T02:27:39.976Z,17.80
2019-06-15T02:30:07.576Z,17.70
2019-06-15T02:32:35.933Z,17.90
2019-06-15T02:35:03.594Z,17.90
2019-06-15T02:37:31.172Z,17.90
2019-06-15T02:39:59.526Z,17.80
2019-06-15T02:42:27.162Z,17.90
2019-06-15T02:44:54.738Z,17.80
2019-06-15T02:47:22.331Z,18.00
2019-06-15T02:49:50.698Z,17.90
2019-06-15T02:52:18.281Z,17.90
2019-06-15T02:54:45.916Z,17.90
2019-06-15T02:57:13.502Z,17.90
2019-06-15T02:59:41.860Z,17.80
2019-06-15T03:02:09.481Z,17.80
2019-06-15T03:04:37.062Z,17.80
2019-06-15T03:07:04.648Z,17.90
2019-06-15T03:09:32.268Z,18.00
2019-06-15T03:11:59.854Z,17.90
2019-06-15T03:14:27.441Z,17.90
2019-06-15T03:16:55.831Z,17.80
2019-06-15T03:19:24.183Z,17.80
2019-06-15T03:21:51.771Z,17.80
2019-06-15T03:24:20.153Z,17.80
2019-06-15T03:26:48.509Z,17.80
2019-06-15T03:29:16.128Z,17.80
2019-06-15T03:31:43.723Z,17.80
2019-06-15T03:34:11.311Z,17.80
2019-06-15T03:36:38.930Z,17.80
2019-06-15T03:39:06.518Z,17.90
2019-06-15T03:41:34.112Z,17.90
2019-06-15T03:44:01.743Z,17.90
2019-06-15T03:46:29.331Z,17.90
2019-06-15T03:48:57.708Z,18.00
2019-06-15T03:51:26.144Z,17.90
2019-06-15T03:53:53.671Z,17.90
2019-06-15T03:56:22.323Z,17.90
2019-06-15T03:58:48.881Z,17.90
2019-06-15T04:01:28.504Z,17.80
2019-06-15T04:03:56.854Z,17.80
2019-06-15T04:06:24.440Z,17.80
2019-06-15T04:08:52.050Z,17.80
2019-06-15T04:11:19.683Z,17.80
2019-06-15T04:13:47.251Z,17.80
2019-06-15T04:16:14.846Z,17.80
2019-06-15T04:18:42.492Z,17.80
2019-06-15T04:21:10.823Z,17.80
2019-06-15T04:23:38.461Z,17.70
2019-06-15T04:26:06.044Z,17.80
2019-06-15T04:28:33.637Z,17.90
2019-06-15T04:31:02.015Z,18.10
2019-06-15T04:33:29.602Z,18.10
2019-06-15T04:35:57.199Z,18.10
2019-06-15T04:38:24.818Z,18.00
2019-06-15T04:40:52.400Z,18.00
2019-06-15T04:43:20.436Z,18.00
2019-06-15T04:45:48.047Z,18.00
2019-06-15T04:48:15.623Z,18.00
2019-06-15T04:50:43.576Z,18.00
2019-06-15T04:53:11.184Z,18.00
2019-06-15T04:55:39.535Z,17.90
2019-06-15T04:58:07.160Z,17.90
2019-06-15T05:00:34.745Z,17.90
2019-06-15T05:03:02.339Z,17.90
2019-06-15T05:05:30.234Z,17.80
2019-06-15T05:07:57.822Z,17.80
2019-06-15T05:10:25.408Z,17.80
2019-06-15T05:12:53.296Z,17.80
2019-06-15T05:15:20.880Z,17.80
2019-06-15T05:17:48.493Z,17.80
2019-06-15T05:20:16.099Z,17.70
2019-06-15T05:22:44.837Z,17.70
2019-06-15T05:25:12.479Z,17.70
2019-06-15T05:27:40.046Z,17.70
2019-06-15T05:30:07.640Z,17.60
2019-06-15T05:32:35.251Z,17.60
2019-06-15T05:35:02.833Z,17.60
2019-06-15T05:37:30.417Z,17.60
2019-06-15T05:39:58.300Z,17.50
2019-06-15T05:42:25.883Z,17.50
2019-06-15T05:44:54.237Z,17.50
2019-06-15T05:47:21.858Z,17.60
2019-06-15T05:49:49.442Z,17.50
2019-06-15T05:52:17.031Z,17.50
2019-06-15T05:54:44.641Z,17.50
2019-06-15T05:57:21.289Z,17.50
2019-06-15T05:59:39.814Z,17.50
2019-06-15T06:02:07.437Z,17.50
2019-06-15T06:04:35.033Z,17.40
2019-06-15T06:07:02.625Z,17.60
2019-06-15T06:09:31.221Z,17.60
2019-06-15T06:11:58.809Z,17.60
2019-06-15T06:14:26.402Z,17.60
2019-06-15T06:16:54.011Z,17.70
2019-06-15T06:19:21.597Z,17.70
2019-06-15T06:21:49.241Z,17.70
2019-06-15T06:24:16.818Z,17.80
2019-06-15T06:26:44.415Z,17.80
2019-06-15T06:29:11.998Z,17.80
2019-06-15T06:31:40.391Z,17.90
2019-06-15T06:34:08.731Z,17.90
2019-06-15T06:36:36.314Z,17.90
2019-06-15T06:39:04.713Z,18.00
2019-06-15T06:41:32.296Z,18.00
2019-06-15T06:44:00.188Z,18.00
2019-06-15T06:46:27.816Z,18.10
2019-06-15T06:48:55.390Z,18.10
2019-06-15T06:51:23.584Z,18.10
2019-06-15T06:53:51.225Z,18.20
2019-06-15T06:56:18.824Z,18.30
2019-06-15T06:58:46.451Z,18.30
2019-06-15T07:01:14.035Z,18.40
2019-06-15T07:03:41.860Z,18.50
2019-06-15T07:06:09.612Z,18.60
2019-06-15T07:08:37.200Z,18.70
2019-06-15T07:11:04.762Z,18.80
2019-06-15T07:13:32.394Z,18.90
2019-06-15T07:16:00.392Z,18.90
2019-06-15T07:18:28.057Z,19.00
2019-06-15T07:20:56.238Z,19.10
2019-06-15T07:23:23.818Z,19.30
2019-06-15T07:25:51.454Z,19.50
2019-06-15T07:28:19.127Z,19.50
2019-06-15T07:30:46.662Z,19.60
2019-06-15T07:33:15.052Z,19.70
2019-06-15T07:35:42.635Z,19.60
2019-06-15T07:38:10.224Z,19.70
2019-06-15T07:40:37.866Z,19.70
2019-06-15T07:43:05.452Z,19.70
2019-06-15T07:45:33.040Z,19.80
2019-06-15T07:48:01.438Z,19.90
2019-06-15T07:50:29.013Z,19.90
2019-06-15T07:52:56.628Z,20.00
2019-06-15T07:55:24.193Z,20.00
2019-06-15T07:57:51.782Z,20.00
2019-06-15T08:00:19.426Z,19.90
2019-06-15T08:02:47.865Z,20.00
2019-06-15T08:05:15.446Z,20.00
2019-06-15T08:07:43.090Z,20.00
2019-06-15T08:10:10.638Z,20.00
2019-06-15T08:12:38.260Z,20.10
2019-06-15T08:15:06.610Z,20.10
2019-06-15T08:17:34.483Z,20.10
2019-06-15T08:20:02.798Z,20.40
2019-06-15T08:22:31.140Z,20.40
2019-06-15T08:24:58.776Z,20.40
2019-06-15T08:27:26.349Z,20.50
2019-06-15T08:29:53.934Z,20.50
2019-06-15T08:32:21.588Z,20.50
2019-06-15T08:34:49.168Z,20.60
2019-06-15T08:37:16.832Z,20.60
2019-06-15T08:39:45.893Z,20.60
2019-06-15T08:42:13.555Z,20.70
2019-06-15T08:44:41.181Z,20.70
2019-06-15T08:47:08.781Z,20.70
2019-06-15T08:49:36.393Z,20.70
2019-06-15T08:52:04.489Z,20.80
2019-06-15T08:54:31.889Z,20.80
2019-06-15T08:56:59.504Z,20.70
2019-06-15T08:59:27.084Z,20.80
2019-06-15T09:01:54.709Z,20.90
2019-06-15T09:04:22.291Z,21.00
2019-06-15T09:06:49.876Z,21.10
2019-06-15T09:09:17.490Z,21.20
2019-06-15T09:11:45.144Z,21.10
2019-06-15T09:14:12.707Z,21.10
2019-06-15T09:16:40.289Z,21.10
2019-06-15T09:19:08.654Z,21.00
2019-06-15T09:21:37.603Z,21.00
2019-06-15T09:24:05.189Z,21.00
2019-06-15T09:26:33.174Z,21.10
2019-06-15T09:29:10.718Z,21.10
2019-06-15T09:31:28.350Z,21.30
2019-06-15T09:33:55.947Z,21.30
2019-06-15T09:36:23.545Z,21.40
2019-06-15T09:38:51.128Z,21.40
2019-06-15T09:41:18.754Z,21.50
2019-06-15T09:43:47.145Z,21.60
2019-06-15T09:46:14.739Z,21.50
2019-06-15T09:48:42.443Z,21.60
2019-06-15T09:51:10.154Z,21.70
2019-06-15T09:53:41.224Z,21.80
2019-06-15T09:56:08.856Z,21.80
2019-06-15T09:58:36.448Z,21.80
2019-06-15T10:01:04.088Z,21.80
2019-06-15T10:03:31.700Z,21.80
2019-06-15T10:05:59.295Z,21.80
2019-06-15T10:08:26.953Z,21.90
2019-06-15T10:10:54.511Z,22.00
2019-06-15T10:13:22.894Z,22.10
2019-06-15T10:15:51.261Z,22.10
2019-06-15T10:18:18.859Z,22.10
2019-06-15T10:20:46.491Z,22.10
2019-06-15T10:23:14.838Z,22.10
2019-06-15T10:25:42.444Z,22.10
2019-06-15T10:28:10.216Z,22.10
2019-06-15T10:33:44.236Z,22.20
2019-06-15T10:36:09.416Z,22.20
2019-06-15T10:38:33.427Z,22.20
2019-06-15T10:41:01.014Z,22.20
2019-06-15T10:43:28.626Z,22.30
2019-06-15T10:45:56.231Z,22.30
2019-06-15T10:48:23.811Z,22.20
2019-06-15T10:50:51.511Z,22.10
2019-06-15T10:53:19.094Z,22.10
2019-06-15T10:55:46.669Z,22.00
2019-06-15T10:58:14.311Z,22.00
2019-06-15T11:00:41.900Z,22.00
2019-06-15T11:03:09.551Z,22.00
2019-06-15T11:05:37.875Z,22.00
2019-06-15T11:08:11.204Z,22.00
2019-06-15T11:10:53.835Z,22.00
2019-06-15T11:13:23.058Z,22.00
2019-06-15T11:15:49.346Z,22.10
2019-06-15T11:18:37.850Z,22.10
2019-06-15T11:20:51.391Z,22.20
2019-06-15T11:23:19.055Z,22.20
2019-06-15T11:25:46.672Z,22.30
2019-06-15T11:28:14.263Z,22.30
2019-06-15T11:30:41.887Z,22.30
2019-06-15T11:33:10.238Z,22.40
2019-06-15T11:35:39.399Z,22.40
2019-06-15T11:38:07.986Z,22.40
2019-06-15T12:09:55.849Z,23.10
2019-06-15T12:12:23.494Z,23.40
2019-06-15T12:14:51.995Z,23.40
2019-06-15T12:17:19.605Z,23.40
2019-06-15T12:19:47.204Z,23.40
2019-06-15T12:22:14.815Z,23.50
2019-06-15T12:24:42.415Z,23.50
2019-06-15T12:27:10.095Z,23.60
2019-06-15T12:29:38.083Z,23.60
2019-06-15T12:35:15.977Z,23.60
2019-06-15T12:44:07.447Z,23.80
2019-06-15T13:19:16.630Z,24.20
2019-06-15T13:21:44.223Z,24.40
2019-06-15T13:24:13.142Z,24.40
2019-06-15T13:26:41.576Z,24.50
2019-06-15T13:29:09.268Z,24.50
2019-06-15T13:31:36.988Z,24.50
2019-06-15T13:34:04.586Z,24.40
2019-06-15T13:36:32.539Z,24.50
2019-06-15T13:39:00.122Z,24.50
2019-06-15T13:41:27.764Z,24.60
2019-06-15T13:43:55.346Z,24.60
2019-06-15T13:46:22.978Z,24.80
2019-06-15T13:48:50.692Z,24.80
2019-06-15T13:51:18.982Z,24.70
2019-06-15T13:53:47.509Z,24.70
2019-06-15T13:56:15.287Z,24.70
2019-06-15T13:58:42.925Z,24.70
2019-06-15T14:01:10.561Z,24.70
2019-06-15T14:03:38.250Z,24.80
2019-06-15T14:06:05.899Z,24.90
2019-06-15T14:08:33.645Z,25.10
2019-06-15T14:11:02.077Z,25.10
2019-06-15T14:13:29.700Z,25.10
2019-06-15T14:15:57.370Z,25.10
2019-06-15T14:18:24.996Z,25.00
2019-06-15T14:20:52.660Z,25.10
2019-06-15T14:23:20.278Z,25.10
2019-06-15T14:25:47.905Z,25.30
2019-06-15T14:28:16.349Z,25.30
2019-06-15T14:30:44.034Z,25.30
2019-06-15T14:33:11.731Z,25.30
2019-06-15T14:35:39.398Z,25.20
2019-06-15T14:38:07.765Z,25.10
2019-06-15T14:40:35.564Z,25.00
2019-06-15T14:43:03.203Z,24.90
2019-06-15T14:45:30.905Z,24.80
2019-06-15T14:47:58.526Z,24.70
2019-06-15T14:50:26.131Z,24.70
2019-06-15T14:52:53.797Z,24.50
2019-06-15T14:55:21.379Z,24.40
2019-06-15T14:57:49.375Z,24.40
2019-06-15T15:00:18.114Z,24.30
2019-06-15T15:02:46.816Z,24.30
2019-06-15T15:05:14.733Z,24.20
2019-06-15T15:07:41.352Z,24.20
2019-06-15T15:10:08.939Z,24.20
2019-06-15T15:12:36.949Z,24.20
2019-06-15T15:15:04.142Z,24.30
2019-06-15T15:17:32.489Z,24.30
2019-06-15T15:20:03.775Z,24.30
2019-06-15T15:22:28.440Z,24.50
2019-06-15T15:24:56.223Z,24.40
2019-06-15T15:27:23.672Z,24.60
2019-06-15T15:29:51.261Z,24.90
2019-06-15T15:32:27.109Z,25.10
2019-06-15T15:34:46.474Z,25.40
2019-06-15T15:37:15.898Z,25.70
2019-06-15T15:39:42.097Z,25.90
2019-06-15T15:42:09.653Z,26.10
2019-06-15T15:44:37.238Z,26.30
2019-06-15T15:47:07.048Z,26.50
2019-06-15T15:49:32.432Z,26.60
2019-06-15T15:52:00.070Z,26.70
2019-06-15T15:54:27.636Z,26.70
2019-06-15T15:56:56.012Z,27.00
2019-06-15T15:59:23.689Z,27.30
2019-06-15T16:01:51.271Z,27.20
2019-06-15T16:04:18.911Z,27.30
2019-06-15T16:06:46.844Z,27.40
2019-06-15T16:09:16.657Z,27.50
2019-06-15T16:11:41.902Z,27.50
2019-06-15T16:14:09.545Z,27.60
2019-06-15T16:16:37.299Z,27.60
2019-06-15T16:19:07.881Z,27.60
2019-06-15T16:21:36.693Z,27.40
2019-06-15T16:24:03.157Z,27.30
2019-06-15T16:26:30.763Z,27.30
2019-06-15T16:28:58.588Z,27.30
2019-06-15T16:31:29.081Z,27.30
2019-06-15T16:33:53.874Z,27.50
2019-06-15T16:36:22.277Z,27.70
2019-06-15T16:38:49.896Z,27.70
2019-06-15T16:41:18.343Z,27.90
2019-06-15T16:43:46.212Z,28.00
2019-06-15T16:46:13.496Z,28.10
2019-06-15T16:48:41.673Z,28.10
2019-06-15T16:51:09.243Z,28.20
2019-06-15T16:53:37.417Z,28.40
2019-06-15T16:56:06.190Z,28.60
2019-06-15T16:58:33.253Z,28.50
2019-06-15T17:01:00.841Z,28.60
2019-06-15T17:03:29.530Z,28.70
2019-06-15T17:05:57.367Z,28.80
2019-06-15T17:08:24.071Z,28.80
2019-06-15T17:10:51.644Z,28.80
2019-06-15T17:13:19.229Z,28.80
2019-06-15T17:15:47.391Z,28.70
2019-06-15T17:18:14.893Z,28.60
2019-06-15T17:20:48.299Z,28.60
2019-06-15T17:23:16.555Z,28.60
2019-06-15T17:25:44.003Z,28.60
2019-06-15T17:28:11.878Z,28.50
2019-06-15T17:30:40.522Z,28.30
2019-06-15T17:33:08.481Z,28.30
2019-06-15T17:35:36.274Z,28.20
2019-06-15T17:38:04.086Z,27.60
2019-06-15T17:40:31.719Z,27.60
2019-06-15T17:42:59.272Z,27.50
2019-06-15T17:45:26.898Z,27.20
2019-06-15T17:47:56.871Z,27.00
2019-06-15T17:50:22.063Z,26.80
2019-06-15T17:52:49.668Z,26.60
2019-06-15T17:55:18.001Z,26.60
2019-06-15T17:57:46.520Z,26.40
2019-06-15T18:00:12.807Z,26.30
2019-06-15T18:02:40.688Z,26.20
2019-06-15T18:05:08.269Z,26.00
2019-06-15T18:07:36.105Z,26.00
2019-06-15T18:10:03.479Z,25.90
2019-06-15T18:12:31.056Z,25.70
2019-06-15T18:14:59.485Z,25.30
2019-06-15T18:17:27.061Z,25.30
2019-06-15T18:19:54.635Z,25.10
2019-06-15T18:22:22.787Z,24.90
2019-06-15T18:24:50.367Z,24.70
2019-06-15T18:27:17.941Z,24.70
2019-06-15T18:29:46.426Z,24.60
2019-06-15T18:32:13.179Z,24.50
2019-06-15T18:34:40.755Z,24.30
2019-06-15T18:37:08.372Z,24.10
2019-06-15T18:39:36.935Z,24.00
2019-06-15T18:42:03.865Z,23.80
2019-06-15T18:44:31.444Z,23.60
2019-06-15T18:46:59.030Z,23.50
2019-06-15T18:49:26.885Z,23.40
2019-06-15T18:51:56.566Z,23.20
2019-06-15T18:54:21.827Z,23.20
2019-06-15T18:56:49.426Z,23.10
2019-06-15T18:59:17.011Z,23.00
2019-06-15T19:01:46.998Z,22.90
2019-06-15T19:04:26.511Z,22.80
2019-06-15T19:06:40.845Z,22.70
2019-06-15T19:09:08.447Z,22.70
2019-06-15T19:11:36.791Z,22.50
2019-06-15T19:14:06.732Z,22.50
2019-06-15T19:16:31.988Z,22.50
2019-06-15T19:19:02.312Z,22.60
2019-06-15T19:21:29.916Z,22.50
2019-06-15T19:23:57.491Z,22.40
2019-06-15T19:26:26.908Z,22.30
2019-06-15T19:28:52.699Z,22.20
2019-06-15T19:31:20.279Z,22.10
2019-06-15T19:33:48.656Z,21.90
2019-06-15T19:36:17.006Z,21.80
2019-06-15T19:38:46.948Z,21.70
2019-06-15T19:41:12.194Z,21.70
2019-06-15T19:43:39.793Z,21.80
2019-06-15T19:46:07.428Z,21.70
2019-06-15T19:48:36.897Z,21.60
2019-06-15T19:51:02.923Z,21.50
2019-06-15T19:53:30.499Z,21.40
2019-06-15T19:55:58.111Z,21.30
2019-06-15T19:58:26.422Z,21.20
2019-06-15T20:00:53.319Z,21.10
2019-06-15T20:03:20.911Z,21.00
2019-06-15T20:05:48.553Z,20.90
2019-06-15T20:08:17.697Z,20.80
2019-06-15T20:10:43.749Z,20.70
2019-06-15T20:13:11.323Z,20.70
2019-06-15T20:15:38.900Z,20.70
2019-06-15T20:18:07.065Z,20.60
2019-06-15T20:20:37.019Z,20.50
2019-06-15T20:23:02.146Z,20.50
2019-06-15T20:25:29.571Z,20.40
2019-06-15T20:27:57.158Z,20.30
2019-06-15T20:30:25.074Z,20.30
2019-06-15T20:32:52.682Z,20.20
2019-06-15T20:35:21.332Z,20.10
2019-06-15T20:37:47.870Z,20.10
2019-06-15T20:40:16.492Z,20.00
2019-06-15T20:42:43.077Z,19.90
2019-06-15T20:45:10.665Z,19.90
2019-06-15T20:47:38.295Z,19.80
2019-06-15T20:50:06.666Z,19.80
2019-06-15T20:52:33.488Z,19.90
2019-06-15T20:55:01.071Z,19.90
2019-06-15T20:57:28.691Z,19.80
2019-06-15T20:59:57.044Z,19.70
2019-06-15T21:02:26.876Z,19.60
2019-06-15T21:04:52.258Z,19.80
2019-06-15T21:07:19.844Z,19.70
2019-06-15T21:09:47.498Z,19.60
2019-06-15T21:12:16.047Z,19.60
2019-06-15T21:14:42.652Z,19.50
2019-06-15T21:17:11.032Z,19.40
2019-06-15T21:19:39.379Z,19.40
2019-06-15T21:22:07.017Z,19.40
2019-06-15T21:24:37.233Z,19.30
2019-06-15T21:27:03.092Z,19.30
2019-06-15T21:29:30.694Z,19.30
2019-06-15T21:31:58.285Z,19.20
2019-06-15T21:34:26.494Z,19.20
2019-06-15T21:36:53.499Z,19.20
2019-06-15T21:39:21.080Z,19.20
2019-06-15T21:41:48.759Z,19.10
2019-06-15T21:44:16.767Z,19.00
2019-06-15T21:46:43.907Z,19.00
2019-06-15T21:49:12.267Z,18.90
2019-06-15T21:51:39.842Z,18.90
2019-06-15T21:54:07.442Z,18.90
2019-06-15T21:56:36.833Z,18.80
2019-06-15T21:59:02.678Z,18.80
2019-06-15T22:01:30.257Z,18.70
2019-06-15T22:03:57.837Z,18.70
2019-06-15T22:06:26.304Z,18.70
2019-06-15T22:08:53.019Z,18.60
2019-06-15T22:11:20.654Z,18.60
2019-06-15T22:13:49.037Z,18.50
2019-06-15T22:16:17.097Z,18.50
2019-06-15T22:18:47.195Z,18.50
2019-06-15T22:21:12.540Z,18.50
2019-06-15T22:23:40.142Z,18.40
2019-06-15T22:26:07.762Z,18.40
2019-06-15T22:28:36.321Z,18.40
2019-06-15T22:31:06.418Z,18.30
2019-06-15T22:33:32.025Z,18.30
2019-06-15T22:35:59.650Z,18.30
2019-06-15T22:38:27.225Z,18.20
2019-06-15T22:40:56.414Z,18.20
2019-06-15T22:43:22.407Z,18.20
2019-06-15T22:45:50.208Z,18.10
2019-06-15T22:48:17.672Z,18.10
2019-06-15T22:50:46.835Z,18.10
2019-06-15T22:53:13.230Z,18.00
2019-06-15T22:55:40.840Z,18.00
2019-06-15T22:58:08.450Z,17.90
2019-06-15T23:00:37.591Z,17.90
2019-06-15T23:03:06.095Z,17.90
2019-06-15T23:05:31.231Z,17.90
2019-06-15T23:07:58.810Z,17.90
2019-06-15T23:10:26.421Z,17.90
2019-06-15T23:12:56.786Z,17.90
2019-06-15T23:15:22.373Z,17.80
2019-06-15T23:17:49.954Z,17.90
2019-06-15T23:20:17.530Z,17.80
2019-06-15T23:22:46.775Z,17.80
2019-06-15T23:25:13.500Z,17.70
2019-06-15T23:27:41.081Z,17.70
2019-06-15T23:30:08.695Z,17.70
2019-06-15T23:32:36.282Z,17.70
2019-06-15T23:35:06.788Z,17.70
2019-06-15T23:37:37.348Z,17.60
2019-06-15T23:40:20.206Z,17.60
2019-06-15T23:42:47.818Z,17.60
2019-06-15T23:45:16.159Z,17.60
2019-06-15T23:47:43.359Z,17.60
2019-06-15T23:50:11.331Z,17.60
2019-06-15T23:52:38.913Z,17.60
2019-06-15T23:55:07.276Z,17.50
2019-06-15T23:57:36.898Z,17.50
